sensor_id;sensor_type;location;lat;lon;timestamp;temperature;humidity
17148;DHT22;8689;47.364;8.796;2023-09-08T05:17:28;16.30;99.90
17148;DHT22;8689;47.364;8.796;2023-09-08T05:24:02;16.30;99.90
17148;DHT22;8689;47.364;8.796;2023-09-08T09:26:23;28.80;87.80
17148;DHT22;8689;47.364;8.796;2023-09-08T09:28:50;28.90;89.70
17148;DHT22;8689;47.364;8.796;2023-09-08T09:31:23;29.10;86.30
17148;DHT22;8689;47.364;8.796;2023-09-08T09:34:01;29.20;86.20
17148;DHT22;8689;47.364;8.796;2023-09-08T09:36:31;29.30;83.80
17148;DHT22;8689;47.364;8.796;2023-09-08T09:38:59;29.40;83.40
17148;DHT22;8689;47.364;8.796;2023-09-08T09:41:29;29.40;82.20
17148;DHT22;8689;47.364;8.796;2023-09-08T09:43:56;29.40;83.40
17148;DHT22;8689;47.364;8.796;2023-09-08T09:46:23;29.30;83.30
17148;DHT22;8689;47.364;8.796;2023-09-08T09:48:54;29.30;83.30
17148;DHT22;8689;47.364;8.796;2023-09-08T09:51:23;29.40;82.20
17148;DHT22;8689;47.364;8.796;2023-09-08T09:53:50;29.40;83.50
17148;DHT22;8689;47.364;8.796;2023-09-08T09:56:18;29.40;83.10
17148;DHT22;8689;47.364;8.796;2023-09-08T09:58:47;29.30;83.40
17148;DHT22;8689;47.364;8.796;2023-09-08T10:01:15;29.30;84.40
17148;DHT22;8689;47.364;8.796;2023-09-08T10:03:44;29.20;85.70
17148;DHT22;8689;47.364;8.796;2023-09-08T10:06:12;29.30;84.40
17148;DHT22;8689;47.364;8.796;2023-09-08T10:08:42;29.40;83.50
17148;DHT22;8689;47.364;8.796;2023-09-08T10:11:11;29.50;83.40
17148;DHT22;8689;47.364;8.796;2023-09-08T10:13:44;29.60;82.70
17148;DHT22;8689;47.364;8.796;2023-09-08T10:16:16;29.70;83.70
17148;DHT22;8689;47.364;8.796;2023-09-08T10:18:47;29.90;83.20
17148;DHT22;8689;47.364;8.796;2023-09-08T10:21:16;29.90;80.90
17148;DHT22;8689;47.364;8.796;2023-09-08T10:23:49;29.80;81.00
17148;DHT22;8689;47.364;8.796;2023-09-08T10:26:22;29.60;80.90
17148;DHT22;8689;47.364;8.796;2023-09-08T10:28:54;29.60;81.40
17148;DHT22;8689;47.364;8.796;2023-09-08T10:31:25;29.70;80.90
17148;DHT22;8689;47.364;8.796;2023-09-08T10:33:53;29.60;81.60
17148;DHT22;8689;47.364;8.796;2023-09-08T10:36:20;29.70;81.00
17148;DHT22;8689;47.364;8.796;2023-09-08T10:38:48;29.70;80.40
17148;DHT22;8689;47.364;8.796;2023-09-08T10:41:27;29.70;80.40
17148;DHT22;8689;47.364;8.796;2023-09-08T10:44:00;29.90;80.30
17148;DHT22;8689;47.364;8.796;2023-09-08T10:46:31;29.90;78.80
17148;DHT22;8689;47.364;8.796;2023-09-08T10:49:03;30.10;78.20
17148;DHT22;8689;47.364;8.796;2023-09-08T10:51:31;30.20;77.90
17148;DHT22;8689;47.364;8.796;2023-09-08T10:53:58;30.20;77.80
17148;DHT22;8689;47.364;8.796;2023-09-08T10:56:47;30.20;77.00
17148;DHT22;8689;47.364;8.796;2023-09-08T10:59:15;30.10;77.90
17148;DHT22;8689;47.364;8.796;2023-09-08T11:01:44;30.20;76.20
17148;DHT22;8689;47.364;8.796;2023-09-08T11:04:14;30.10;76.70
17148;DHT22;8689;47.364;8.796;2023-09-08T11:06:44;30.20;76.60
17148;DHT22;8689;47.364;8.796;2023-09-08T11:09:11;30.10;76.60
17148;DHT22;8689;47.364;8.796;2023-09-08T11:11:40;30.10;76.80
17148;DHT22;8689;47.364;8.796;2023-09-08T11:14:07;30.10;75.30
17148;DHT22;8689;47.364;8.796;2023-09-08T11:16:34;30.20;76.90
17148;DHT22;8689;47.364;8.796;2023-09-08T11:19:03;30.30;75.00
17148;DHT22;8689;47.364;8.796;2023-09-08T11:21:31;30.20;74.60
17148;DHT22;8689;47.364;8.796;2023-09-08T11:24:01;30.20;74.40
17148;DHT22;8689;47.364;8.796;2023-09-08T11:26:32;30.20;74.00
17148;DHT22;8689;47.364;8.796;2023-09-08T11:29:00;30.30;73.40
17148;DHT22;8689;47.364;8.796;2023-09-08T11:31:27;30.40;74.10
17148;DHT22;8689;47.364;8.796;2023-09-08T11:33:55;30.50;71.90
17148;DHT22;8689;47.364;8.796;2023-09-08T11:36:23;30.30;71.70
17148;DHT22;8689;47.364;8.796;2023-09-08T11:38:52;30.30;71.40
17148;DHT22;8689;47.364;8.796;2023-09-08T11:41:23;30.30;69.30
17148;DHT22;8689;47.364;8.796;2023-09-08T11:43:52;30.30;70.40
17148;DHT22;8689;47.364;8.796;2023-09-08T11:46:47;30.40;70.40
17148;DHT22;8689;47.364;8.796;2023-09-08T11:49:20;30.30;69.40
17148;DHT22;8689;47.364;8.796;2023-09-08T12:02:35;30.50;67.70
17148;DHT22;8689;47.364;8.796;2023-09-08T12:05:33;30.60;66.30
17148;DHT22;8689;47.364;8.796;2023-09-08T12:08:18;30.60;66.30
17148;DHT22;8689;47.364;8.796;2023-09-08T12:10:45;30.60;67.70
17148;DHT22;8689;47.364;8.796;2023-09-08T12:13:20;30.60;66.60
17148;DHT22;8689;47.364;8.796;2023-09-08T12:15:50;30.60;66.20
17148;DHT22;8689;47.364;8.796;2023-09-08T12:18:37;30.80;67.70
17148;DHT22;8689;47.364;8.796;2023-09-08T12:21:05;30.90;68.00
17148;DHT22;8689;47.364;8.796;2023-09-08T12:24:06;31.00;65.10
17148;DHT22;8689;47.364;8.796;2023-09-08T12:26:25;31.20;65.10
17148;DHT22;8689;47.364;8.796;2023-09-08T12:28:52;31.60;64.20
17148;DHT22;8689;47.364;8.796;2023-09-08T12:31:18;31.80;61.60
17148;DHT22;8689;47.364;8.796;2023-09-08T12:33:48;32.20;62.20
17148;DHT22;8689;47.364;8.796;2023-09-08T12:36:17;32.60;60.80
17148;DHT22;8689;47.364;8.796;2023-09-08T12:38:47;33.00;59.00
17148;DHT22;8689;47.364;8.796;2023-09-08T12:41:15;33.10;57.10
17148;DHT22;8689;47.364;8.796;2023-09-08T12:43:42;33.30;56.90
17148;DHT22;8689;47.364;8.796;2023-09-08T12:46:09;33.50;57.00
17148;DHT22;8689;47.364;8.796;2023-09-08T12:55:11;33.70;54.00
17148;DHT22;8689;47.364;8.796;2023-09-08T13:14:29;35.80;51.10
17148;DHT22;8689;47.364;8.796;2023-09-08T13:16:56;35.80;49.70
17148;DHT22;8689;47.364;8.796;2023-09-08T13:19:23;36.00;49.10
17148;DHT22;8689;47.364;8.796;2023-09-08T13:21:50;35.90;50.90
17148;DHT22;8689;47.364;8.796;2023-09-08T13:24:17;35.90;50.60
17148;DHT22;8689;47.364;8.796;2023-09-08T13:26:46;36.20;49.90
17148;DHT22;8689;47.364;8.796;2023-09-08T13:29:13;36.50;49.00
17148;DHT22;8689;47.364;8.796;2023-09-08T13:31:41;36.80;47.40
17148;DHT22;8689;47.364;8.796;2023-09-08T13:34:09;36.90;46.10
17148;DHT22;8689;47.364;8.796;2023-09-08T13:36:36;36.80;46.10
17148;DHT22;8689;47.364;8.796;2023-09-08T13:39:03;36.40;47.80
17148;DHT22;8689;47.364;8.796;2023-09-08T13:41:47;36.10;47.30
17148;DHT22;8689;47.364;8.796;2023-09-08T13:44:16;35.90;48.90
17148;DHT22;8689;47.364;8.796;2023-09-08T13:46:45;35.90;47.70
17148;DHT22;8689;47.364;8.796;2023-09-08T13:49:13;36.10;47.50
17148;DHT22;8689;47.364;8.796;2023-09-08T13:51:40;36.30;48.30
17148;DHT22;8689;47.364;8.796;2023-09-08T13:54:07;36.80;47.10
17148;DHT22;8689;47.364;8.796;2023-09-08T13:56:35;37.00;47.10
17148;DHT22;8689;47.364;8.796;2023-09-08T13:59:02;37.10;46.70
17148;DHT22;8689;47.364;8.796;2023-09-08T14:01:29;36.90;46.10
17148;DHT22;8689;47.364;8.796;2023-09-08T14:03:58;36.90;47.20
17148;DHT22;8689;47.364;8.796;2023-09-08T14:06:26;37.10;45.70
17148;DHT22;8689;47.364;8.796;2023-09-08T14:08:53;37.10;44.60
17148;DHT22;8689;47.364;8.796;2023-09-08T14:11:21;37.20;46.10
17148;DHT22;8689;47.364;8.796;2023-09-08T14:13:48;37.30;44.60
17148;DHT22;8689;47.364;8.796;2023-09-08T14:36:17;36.10;46.60
17148;DHT22;8689;47.364;8.796;2023-09-08T14:38:47;35.80;47.40
17148;DHT22;8689;47.364;8.796;2023-09-08T14:41:29;35.50;46.40
17148;DHT22;8689;47.364;8.796;2023-09-08T14:43:57;35.00;47.80
17148;DHT22;8689;47.364;8.796;2023-09-08T14:46:24;34.80;47.90
17148;DHT22;8689;47.364;8.796;2023-09-08T14:48:54;34.20;50.10
17148;DHT22;8689;47.364;8.796;2023-09-08T14:51:22;33.50;49.40
17148;DHT22;8689;47.364;8.796;2023-09-08T14:53:49;32.80;53.30
17148;DHT22;8689;47.364;8.796;2023-09-08T14:56:16;32.00;52.90
17148;DHT22;8689;47.364;8.796;2023-09-08T14:58:44;31.60;55.80
17148;DHT22;8689;47.364;8.796;2023-09-08T15:01:13;31.20;56.40
17148;DHT22;8689;47.364;8.796;2023-09-08T15:03:42;30.80;58.10
17148;DHT22;8689;47.364;8.796;2023-09-08T15:06:10;30.50;58.00
17148;DHT22;8689;47.364;8.796;2023-09-08T15:08:38;30.20;59.10
17148;DHT22;8689;47.364;8.796;2023-09-08T15:11:14;30.10;59.10
17148;DHT22;8689;47.364;8.796;2023-09-08T15:13:44;29.90;58.90
17148;DHT22;8689;47.364;8.796;2023-09-08T15:16:12;29.80;59.30
17148;DHT22;8689;47.364;8.796;2023-09-08T15:18:40;29.70;59.30
17148;DHT22;8689;47.364;8.796;2023-09-08T15:21:08;29.60;59.70
17148;DHT22;8689;47.364;8.796;2023-09-08T15:23:38;29.40;59.20
17148;DHT22;8689;47.364;8.796;2023-09-08T15:26:06;29.30;60.00
17148;DHT22;8689;47.364;8.796;2023-09-08T15:28:35;29.30;60.10
17148;DHT22;8689;47.364;8.796;2023-09-08T15:31:04;29.20;62.20
17148;DHT22;8689;47.364;8.796;2023-09-08T15:33:32;29.10;63.50
17148;DHT22;8689;47.364;8.796;2023-09-08T15:35:59;29.00;63.60
17148;DHT22;8689;47.364;8.796;2023-09-08T15:38:41;29.00;65.90
17148;DHT22;8689;47.364;8.796;2023-09-08T15:41:17;28.90;65.40
17148;DHT22;8689;47.364;8.796;2023-09-08T15:43:50;28.80;65.40
17148;DHT22;8689;47.364;8.796;2023-09-08T15:46:29;28.80;62.00
17148;DHT22;8689;47.364;8.796;2023-09-08T15:48:57;28.70;64.80
17148;DHT22;8689;47.364;8.796;2023-09-08T18:45:47;21.60;99.90
17148;DHT22;8689;47.364;8.796;2023-09-08T18:48:19;21.60;99.90
17148;DHT22;8689;47.364;8.796;2023-09-08T18:50:47;21.50;99.90
17148;DHT22;8689;47.364;8.796;2023-09-08T18:53:32;21.60;99.90
17148;DHT22;8689;47.364;8.796;2023-09-08T18:56:23;21.50;99.90
17148;DHT22;8689;47.364;8.796;2023-09-08T20:09:49;20.90;99.90
17148;DHT22;8689;47.364;8.796;2023-09-08T20:12:36;20.90;99.90
17148;DHT22;8689;47.364;8.796;2023-09-08T20:21:43;20.80;99.90
17148;DHT22;8689;47.364;8.796;2023-09-08T20:24:19;20.70;99.90
17148;DHT22;8689;47.364;8.796;2023-09-08T20:26:53;20.70;99.90
17148;DHT22;8689;47.364;8.796;2023-09-08T20:29:42;20.60;99.90
17148;DHT22;8689;47.364;8.796;2023-09-08T20:32:56;20.60;99.90
17148;DHT22;8689;47.364;8.796;2023-09-08T20:35:34;20.60;99.90
17148;DHT22;8689;47.364;8.796;2023-09-08T20:38:11;20.50;99.90
17148;DHT22;8689;47.364;8.796;2023-09-08T20:40:57;20.50;99.90
17148;DHT22;8689;47.364;8.796;2023-09-08T20:43:29;20.50;99.90
17148;DHT22;8689;47.364;8.796;2023-09-08T20:46:16;20.50;99.90
17148;DHT22;8689;47.364;8.796;2023-09-08T20:48:44;20.40;99.90
